createdAt,value
2019-03-09T00:01:49.333Z,77201.92
2019-03-09T00:04:18.950Z,77200.91
2019-03-09T00:06:48.158Z,77193.83
2019-03-09T00:09:18.491Z,77175.60
2019-03-09T00:11:47.854Z,77177.63
2019-03-09T00:14:17.449Z,77162.44
2019-03-09T00:16:46.652Z,77149.28
2019-03-09T00:19:15.945Z,77151.31
2019-03-09T00:21:46.063Z,77141.19
2019-03-09T00:24:46.373Z,77147.26
2019-03-09T00:27:29.203Z,77146.25
2019-03-09T00:30:13.497Z,77155.36
2019-03-09T00:32:42.784Z,77166.49
2019-03-09T00:35:12.150Z,77180.66
2019-03-09T00:37:44.374Z,77196.86
2019-03-09T00:40:13.918Z,77195.84
2019-03-09T00:42:46.127Z,77197.88
2019-03-09T00:45:15.352Z,77211.03
2019-03-09T00:47:44.930Z,77216.09
2019-03-09T00:50:14.234Z,77218.13
2019-03-09T00:52:43.521Z,77228.24
2019-03-09T00:55:13.140Z,77230.27
2019-03-09T00:57:42.630Z,77224.19
2019-03-09T01:00:17.559Z,77220.14
2019-03-09T01:02:48.604Z,77222.17
2019-03-09T01:05:18.045Z,77231.28
2019-03-09T01:07:49.393Z,77231.28
2019-03-09T01:10:18.815Z,77249.50
2019-03-09T01:12:47.998Z,77261.65
2019-03-09T01:15:17.727Z,77254.56
2019-03-09T01:17:46.971Z,77258.61
2019-03-09T01:20:19.691Z,77254.56
2019-03-09T01:22:49.382Z,77250.52
2019-03-09T01:25:18.699Z,77260.64
2019-03-09T01:27:48.311Z,77256.59
2019-03-09T01:30:18.329Z,77253.55
2019-03-09T01:32:47.945Z,77249.50
2019-03-09T01:35:17.277Z,77235.33
2019-03-09T01:37:46.531Z,77240.39
2019-03-09T01:40:16.095Z,77244.44
2019-03-09T01:42:46.043Z,77237.35
2019-03-09T01:45:15.641Z,77233.30
2019-03-09T01:47:44.876Z,77223.18
2019-03-09T01:50:14.145Z,77208.00
2019-03-09T01:52:43.704Z,77212.05
2019-03-09T01:55:15.060Z,77217.11
2019-03-09T01:57:44.270Z,77225.20
2019-03-09T02:00:15.311Z,77191.80
2019-03-09T02:02:44.511Z,77194.84
2019-03-09T02:05:14.122Z,77188.77
2019-03-09T02:07:43.534Z,77183.70
2019-03-09T02:10:13.118Z,77193.83
2019-03-09T02:12:42.269Z,77193.83
2019-03-09T02:15:12.639Z,77191.80
2019-03-09T02:17:43.360Z,77192.81
2019-03-09T02:20:14.097Z,77187.75
2019-03-09T02:22:43.292Z,77189.77
2019-03-09T02:25:12.861Z,77188.77
2019-03-09T02:27:42.059Z,77196.86
2019-03-09T02:30:14.769Z,77194.84
2019-03-09T02:32:43.901Z,77184.71
2019-03-09T02:35:13.245Z,77191.80
2019-03-09T02:37:42.437Z,77198.89
2019-03-09T02:40:14.371Z,77185.72
2019-03-09T02:42:43.574Z,77191.80
2019-03-09T02:45:14.124Z,77189.77
2019-03-09T02:47:43.366Z,77190.79
2019-03-09T02:50:14.110Z,77194.84
2019-03-09T02:52:43.576Z,77189.77
2019-03-09T02:55:13.109Z,77189.77
2019-03-09T02:57:43.314Z,77192.81
2019-03-09T03:00:14.809Z,77187.75
2019-03-09T03:02:50.382Z,77183.70
2019-03-09T03:05:21.959Z,77184.71
2019-03-09T03:07:53.846Z,77179.66
2019-03-09T03:10:23.104Z,77176.61
2019-03-09T03:12:52.310Z,77170.55
2019-03-09T03:15:30.627Z,77173.58
2019-03-09T03:17:59.875Z,77173.58
2019-03-09T03:20:29.021Z,77182.69
2019-03-09T03:22:58.257Z,77175.60
2019-03-09T03:25:27.395Z,77182.69
2019-03-09T03:27:57.438Z,77181.67
2019-03-09T03:30:28.701Z,77176.61
2019-03-09T03:32:58.438Z,77179.66
2019-03-09T03:35:27.617Z,77180.66
2019-03-09T03:37:58.955Z,77174.59
2019-03-09T03:40:30.628Z,77170.55
2019-03-09T03:43:02.170Z,77169.53
2019-03-09T03:45:36.674Z,77170.55
2019-03-09T03:48:06.151Z,77179.66
2019-03-09T03:50:36.059Z,77174.59
2019-03-09T03:53:05.362Z,77166.49
2019-03-09T03:55:35.601Z,77165.48
2019-03-09T03:58:05.405Z,77172.56
2019-03-09T04:00:34.658Z,77161.43
2019-03-09T04:03:04.232Z,77159.41
2019-03-09T04:05:33.522Z,77158.39
2019-03-09T04:08:02.748Z,77152.32
2019-03-09T04:10:32.815Z,77148.27
2019-03-09T04:13:03.109Z,77154.34
2019-03-09T04:15:32.285Z,77157.38
2019-03-09T04:18:01.528Z,77153.33
2019-03-09T04:20:31.052Z,77154.34
2019-03-09T04:23:00.284Z,77152.32
2019-03-09T04:25:29.478Z,77157.38
2019-03-09T04:27:59.086Z,77147.26
2019-03-09T04:30:28.646Z,77151.31
2019-03-09T04:32:57.869Z,77171.55
2019-03-09T04:35:27.122Z,77172.56
2019-03-09T04:37:56.319Z,77170.55
2019-03-09T04:40:25.573Z,77174.59
2019-03-09T04:42:54.761Z,77167.50
2019-03-09T04:45:23.932Z,77169.53
2019-03-09T04:47:53.171Z,77175.60
2019-03-09T04:50:22.632Z,77163.45
2019-03-09T04:52:51.855Z,77167.50
2019-03-09T04:55:21.198Z,77167.50
2019-03-09T04:57:50.453Z,77167.50
2019-03-09T05:00:21.605Z,77166.49
2019-03-09T05:02:50.865Z,77174.59
2019-03-09T05:05:21.085Z,77185.72
2019-03-09T05:08:06.414Z,77177.63
2019-03-09T05:10:56.782Z,77179.66
2019-03-09T05:13:35.687Z,77173.58
2019-03-09T05:16:04.875Z,77166.49
2019-03-09T05:18:34.102Z,77154.34
2019-03-09T05:21:03.271Z,77159.41
2019-03-09T05:23:32.585Z,77158.39
2019-03-09T05:26:02.092Z,77163.45
2019-03-09T05:28:31.392Z,77161.43
2019-03-09T05:31:01.022Z,77156.37
2019-03-09T05:33:30.314Z,77165.48
2019-03-09T05:35:59.463Z,77168.52
2019-03-09T05:38:28.691Z,77166.49
2019-03-09T05:40:58.225Z,77177.63
2019-03-09T05:43:27.558Z,77175.60
2019-03-09T05:45:57.920Z,77167.50
2019-03-09T05:48:27.437Z,77165.48
2019-03-09T05:50:56.636Z,77170.55
2019-03-09T05:53:25.938Z,77172.56
2019-03-09T05:55:55.237Z,77161.43
2019-03-09T05:58:24.814Z,77158.39
2019-03-09T06:00:54.106Z,77146.25
2019-03-09T06:03:26.220Z,77155.36
2019-03-09T06:06:04.899Z,77163.45
2019-03-09T06:08:34.156Z,77172.56
2019-03-09T06:11:08.520Z,77166.49
2019-03-09T06:13:37.675Z,77171.55
2019-03-09T06:16:10.013Z,77173.58
2019-03-09T06:18:39.489Z,77192.81
2019-03-09T06:21:09.106Z,77202.94
2019-03-09T06:23:40.650Z,77197.88
2019-03-09T06:26:10.083Z,77203.95
2019-03-09T06:28:39.589Z,77201.92
2019-03-09T06:31:08.788Z,77211.03
2019-03-09T06:33:38.870Z,77222.17
2019-03-09T06:37:07.057Z,77231.28
2019-03-09T06:39:42.708Z,77230.27
2019-03-09T06:42:51.304Z,77221.16
2019-03-09T06:45:20.793Z,77222.17
2019-03-09T06:47:51.215Z,77212.05
2019-03-09T06:50:21.114Z,77206.98
2019-03-09T06:52:50.407Z,77198.89
2019-03-09T06:55:20.172Z,77195.84
2019-03-09T06:57:49.434Z,77209.01
2019-03-09T07:00:30.953Z,77211.03
2019-03-09T07:03:02.203Z,77212.05
2019-03-09T07:05:32.249Z,77206.98
2019-03-09T07:08:01.818Z,77197.88
2019-03-09T07:10:31.002Z,77202.94
2019-03-09T07:13:00.408Z,77194.84
2019-03-09T07:15:39.560Z,77197.88
2019-03-09T07:18:29.972Z,77189.77
2019-03-09T07:20:59.202Z,77182.69
2019-03-09T07:23:28.402Z,77187.75
2019-03-09T07:25:57.672Z,77194.84
2019-03-09T07:28:27.384Z,77197.88
2019-03-09T07:30:56.692Z,77196.86
2019-03-09T07:33:41.820Z,77205.97
2019-03-09T07:36:28.413Z,77196.86
2019-03-09T07:38:57.520Z,77211.03
2019-03-09T07:41:26.796Z,77212.05
2019-03-09T07:43:56.000Z,77204.95
2019-03-09T07:46:27.476Z,77201.92
2019-03-09T07:48:56.674Z,77178.64
2019-03-09T07:51:25.949Z,77173.58
2019-03-09T07:53:55.891Z,77173.58
2019-03-09T07:56:25.088Z,77166.49
2019-03-09T07:58:54.592Z,77170.55
2019-03-09T08:01:24.149Z,77167.50
2019-03-09T08:03:53.457Z,77165.48
2019-03-09T08:06:24.739Z,77163.45
2019-03-09T08:08:54.077Z,77164.47
2019-03-09T08:11:24.822Z,77167.50
2019-03-09T08:13:54.120Z,77163.45
2019-03-09T08:16:23.347Z,77166.49
2019-03-09T08:18:55.821Z,77171.55
2019-03-09T08:21:25.026Z,77162.44
2019-03-09T08:23:56.599Z,77161.43
2019-03-09T08:26:25.968Z,77162.44
2019-03-09T08:28:55.246Z,77150.30
2019-03-09T08:31:24.504Z,77149.28
2019-03-09T08:34:05.963Z,77143.21
2019-03-09T08:36:35.252Z,77128.03
2019-03-09T08:39:05.287Z,77118.92
2019-03-09T08:41:34.876Z,77108.80
2019-03-09T08:44:07.974Z,77107.78
2019-03-09T08:46:37.558Z,77113.86
2019-03-09T08:49:06.823Z,77102.72
2019-03-09T08:51:38.019Z,77120.94
2019-03-09T08:54:07.211Z,77120.94
2019-03-09T08:56:38.480Z,77118.92
2019-03-09T08:59:10.605Z,77120.94
2019-03-09T09:01:39.789Z,77116.89
2019-03-09T09:04:09.055Z,77112.84
2019-03-09T09:06:38.481Z,77114.87
2019-03-09T09:09:07.854Z,77105.75
2019-03-09T09:11:37.102Z,77103.73
2019-03-09T09:14:07.425Z,77088.55
2019-03-09T09:16:36.745Z,77081.46
2019-03-09T09:19:05.940Z,77084.50
2019-03-09T09:21:35.269Z,77082.48
2019-03-09T09:24:04.540Z,77083.48
2019-03-09T09:26:34.322Z,77076.40
2019-03-09T09:29:03.499Z,77080.45
2019-03-09T09:31:32.744Z,77056.16
2019-03-09T09:34:02.559Z,77061.22
2019-03-09T09:36:31.810Z,77065.27
2019-03-09T09:39:01.013Z,77053.13
2019-03-09T09:41:33.132Z,77061.22
2019-03-09T09:44:02.723Z,77068.30
2019-03-09T09:46:32.073Z,77073.36
2019-03-09T09:49:01.274Z,77074.38
2019-03-09T09:51:30.487Z,77070.33
2019-03-09T09:54:02.802Z,77059.20
2019-03-09T09:56:32.287Z,77056.16
2019-03-09T09:59:01.521Z,77055.14
2019-03-09T10:01:32.882Z,77040.97
2019-03-09T10:04:04.952Z,77031.86
2019-03-09T10:06:34.541Z,77027.81
2019-03-09T10:09:06.810Z,77013.64
2019-03-09T10:11:36.006Z,77011.62
2019-03-09T10:14:05.343Z,77004.53
2019-03-09T10:16:34.598Z,77014.66
2019-03-09T10:19:03.769Z,77005.55
2019-03-09T10:21:33.502Z,77009.59
2019-03-09T10:24:02.870Z,77003.52
2019-03-09T10:26:34.925Z,76981.25
2019-03-09T10:29:04.206Z,76962.02
2019-03-09T10:31:33.924Z,76957.97
2019-03-09T10:34:03.420Z,76943.80
2019-03-09T10:36:32.968Z,76971.13
2019-03-09T10:39:02.228Z,76970.12
2019-03-09T10:41:31.465Z,76951.90
2019-03-09T10:44:00.624Z,76942.79
2019-03-09T10:46:30.262Z,76922.55
2019-03-09T10:48:59.598Z,76919.51
2019-03-09T10:51:28.867Z,76910.40
2019-03-09T10:53:58.167Z,76913.44
2019-03-09T10:56:27.441Z,76920.52
2019-03-09T10:58:56.825Z,76915.45
2019-03-09T11:01:26.091Z,76914.45
2019-03-09T11:03:55.872Z,76906.34
2019-03-09T11:06:25.119Z,76904.33
2019-03-09T11:08:54.351Z,76885.09
2019-03-09T11:11:23.762Z,76896.23
2019-03-09T11:13:53.052Z,76896.23
2019-03-09T11:16:22.711Z,76888.13
2019-03-09T11:18:56.103Z,76910.40
2019-03-09T11:21:25.665Z,76898.25
2019-03-09T11:23:55.166Z,76893.19
2019-03-09T11:26:24.513Z,76868.90
2019-03-09T11:28:53.876Z,76865.86
2019-03-09T11:31:23.323Z,76870.92
2019-03-09T11:33:52.501Z,76876.99
2019-03-09T11:36:26.796Z,76878.00
2019-03-09T11:38:57.083Z,76879.02
2019-03-09T11:41:26.521Z,76854.73
2019-03-09T11:43:57.840Z,76837.52
2019-03-09T11:46:29.495Z,76837.52
2019-03-09T11:49:00.600Z,76841.57
2019-03-09T11:51:30.172Z,76804.12
2019-03-09T11:53:59.383Z,76781.85
2019-03-09T11:56:36.329Z,76749.47
2019-03-09T11:59:08.391Z,76734.28
2019-03-09T12:01:40.454Z,76695.81
2019-03-09T12:04:10.527Z,76679.63
2019-03-09T12:06:42.433Z,76695.81
2019-03-09T12:09:12.054Z,76683.67
2019-03-09T12:11:41.225Z,76678.61
2019-03-09T12:14:10.648Z,76662.42
2019-03-09T12:16:40.018Z,76663.43
2019-03-09T12:19:28.748Z,76622.95
2019-03-09T12:22:02.128Z,76562.22
2019-03-09T12:24:32.226Z,76479.23
2019-03-09T12:27:01.486Z,76412.44
2019-03-09T12:29:30.822Z,76432.67
2019-03-09T12:32:00.866Z,76437.73
2019-03-09T12:34:30.079Z,76502.51
2019-03-09T12:36:59.365Z,76526.80
2019-03-09T12:39:28.795Z,76541.98
2019-03-09T12:41:58.078Z,76538.94
2019-03-09T12:44:29.649Z,76469.11
2019-03-09T12:46:58.874Z,76448.87
2019-03-09T12:49:28.264Z,76504.53
2019-03-09T12:52:00.317Z,76552.09
2019-03-09T12:54:31.823Z,76576.39
2019-03-09T12:57:01.356Z,76596.63
2019-03-09T12:59:30.679Z,76597.64
2019-03-09T13:02:01.059Z,76619.91
2019-03-09T13:04:30.461Z,76589.55
2019-03-09T13:06:59.780Z,76527.81
2019-03-09T13:09:29.326Z,76531.86
2019-03-09T13:11:58.693Z,76519.72
2019-03-09T13:14:27.918Z,76541.98
2019-03-09T13:16:57.238Z,76536.92
2019-03-09T13:19:29.496Z,76576.39
2019-03-09T13:21:58.758Z,76573.35
2019-03-09T13:24:28.371Z,76567.28
2019-03-09T13:27:00.470Z,76584.48
2019-03-09T13:29:30.378Z,76582.46
2019-03-09T13:31:59.765Z,76598.66
2019-03-09T13:34:29.020Z,76588.53
2019-03-09T13:36:59.168Z,76597.64
2019-03-09T13:39:31.383Z,76644.20
2019-03-09T13:42:00.993Z,76672.54
2019-03-09T13:44:30.351Z,76699.87
2019-03-09T13:46:59.672Z,76718.09
2019-03-09T13:49:32.111Z,76705.94
2019-03-09T13:52:01.771Z,76704.92
2019-03-09T13:54:30.968Z,76695.81
2019-03-09T13:57:00.224Z,76721.13
2019-03-09T13:59:30.273Z,76737.31
2019-03-09T14:02:02.534Z,76783.88
2019-03-09T14:04:31.858Z,76792.98
2019-03-09T14:07:04.774Z,76850.68
2019-03-09T14:09:35.753Z,76869.91
2019-03-09T14:12:05.227Z,76889.14
2019-03-09T14:14:34.303Z,76900.28
2019-03-09T14:17:08.266Z,76899.27
2019-03-09T14:19:39.882Z,76861.81
2019-03-09T14:22:10.280Z,76845.62
2019-03-09T14:24:39.791Z,76822.34
2019-03-09T14:27:16.001Z,76741.37
2019-03-09T14:29:45.621Z,76689.75
2019-03-09T14:32:15.426Z,76682.66
2019-03-09T14:34:47.330Z,76654.32
2019-03-09T14:37:18.211Z,76675.58
2019-03-09T14:39:49.398Z,76642.17
2019-03-09T14:42:19.195Z,76630.03
2019-03-09T14:44:53.006Z,76613.84
2019-03-09T14:47:23.861Z,76651.28
2019-03-09T14:49:56.452Z,76665.45
2019-03-09T14:52:26.020Z,76661.41
2019-03-09T14:54:57.157Z,76655.33
2019-03-09T14:57:26.558Z,76650.27
2019-03-09T14:59:59.181Z,76672.54
2019-03-09T15:02:28.820Z,76651.28
2019-03-09T15:04:58.741Z,76659.38
2019-03-09T15:07:28.323Z,76673.55
2019-03-09T15:09:57.945Z,76669.50
2019-03-09T15:12:27.314Z,76659.38
2019-03-09T15:14:56.586Z,76645.21
2019-03-09T15:17:26.197Z,76618.90
2019-03-09T15:19:55.526Z,76613.84
2019-03-09T15:22:25.338Z,76614.84
2019-03-09T15:24:54.762Z,76588.53
2019-03-09T15:27:24.494Z,76597.64
2019-03-09T15:29:56.011Z,76587.52
2019-03-09T15:32:26.074Z,76592.58
2019-03-09T15:35:00.444Z,76589.55
2019-03-09T15:37:32.460Z,76603.72
2019-03-09T15:40:06.506Z,76612.83
2019-03-09T15:42:38.517Z,76610.80
2019-03-09T15:45:08.326Z,76624.97
2019-03-09T15:47:37.990Z,76632.05
2019-03-09T15:50:11.666Z,76608.78
2019-03-09T15:53:02.145Z,76623.95
2019-03-09T15:55:36.695Z,76645.21
2019-03-09T15:58:09.514Z,76666.47
2019-03-09T16:00:39.938Z,76700.88
2019-03-09T16:03:09.647Z,76731.24
2019-03-09T16:05:39.546Z,76749.47
2019-03-09T16:08:09.293Z,76774.77
2019-03-09T16:10:39.440Z,76767.68
2019-03-09T16:13:11.415Z,76774.77
2019-03-09T16:15:43.054Z,76792.98
2019-03-09T16:18:13.028Z,76788.94
2019-03-09T16:20:48.518Z,76790.96
2019-03-09T16:23:19.737Z,76780.84
2019-03-09T16:25:49.063Z,76780.84
2019-03-09T16:28:18.312Z,76801.08
2019-03-09T16:30:47.779Z,76811.20
2019-03-09T16:33:17.247Z,76842.58
2019-03-09T16:35:46.603Z,77030.85
2019-03-09T16:38:16.060Z,77146.25
2019-03-09T16:40:45.922Z,77223.18
2019-03-09T16:43:19.982Z,77267.72
2019-03-09T16:45:54.059Z,77284.93
2019-03-09T16:48:23.671Z,77293.03
2019-03-09T16:50:58.455Z,77261.65
2019-03-09T16:53:28.452Z,77289.99
2019-03-09T16:55:58.355Z,77267.72
2019-03-09T16:58:27.795Z,77276.83
2019-03-09T17:00:57.607Z,77265.70
2019-03-09T17:03:30.125Z,77258.61
2019-03-09T17:05:59.621Z,77254.56
2019-03-09T17:08:28.922Z,77252.53
2019-03-09T17:10:58.766Z,77248.48
2019-03-09T17:13:28.444Z,77247.47
2019-03-09T17:15:57.770Z,77254.56
2019-03-09T17:18:27.868Z,77266.70
2019-03-09T17:20:57.815Z,77252.53
2019-03-09T17:23:27.088Z,77259.63
2019-03-09T17:26:00.609Z,77257.59
2019-03-09T17:28:30.273Z,77273.80
2019-03-09T17:30:59.735Z,77277.84
2019-03-09T17:33:28.998Z,77281.89
2019-03-09T17:35:58.681Z,77281.89
2019-03-09T17:38:28.002Z,77294.04
2019-03-09T17:40:57.296Z,77302.14
2019-03-09T17:43:26.748Z,77311.25
2019-03-09T17:45:55.964Z,77308.22
2019-03-09T17:48:25.237Z,77313.27
2019-03-09T17:53:50.777Z,77318.34
2019-03-09T17:56:20.082Z,77325.42
2019-03-09T17:58:49.524Z,77323.40
2019-03-09T18:01:39.848Z,77332.51
2019-03-09T18:04:10.349Z,77338.58
2019-03-09T18:06:40.050Z,77344.66
2019-03-09T18:09:09.271Z,77353.77
2019-03-09T18:11:38.561Z,77358.83
2019-03-09T18:17:05.301Z,77369.97
2019-03-09T18:19:34.709Z,77367.94
2019-03-09T18:22:04.137Z,77376.04
2019-03-09T18:25:22.257Z,77383.13
2019-03-09T18:27:52.786Z,77386.16
2019-03-09T18:32:57.290Z,77399.33
2019-03-09T18:35:26.582Z,77398.31
2019-03-09T18:38:14.930Z,77409.45
2019-03-09T18:47:02.391Z,77418.56
2019-03-09T18:49:50.744Z,77433.74
2019-03-09T18:52:20.035Z,77432.73
2019-03-09T18:55:12.022Z,77427.67
2019-03-09T18:57:41.566Z,77434.75
2019-03-09T19:00:12.836Z,77441.84
2019-03-09T19:02:43.513Z,77442.85
2019-03-09T19:05:14.583Z,77455.00
2019-03-09T19:07:47.844Z,77452.98
2019-03-09T19:10:37.984Z,77471.20
2019-03-09T19:13:08.827Z,77471.20
2019-03-09T19:15:39.079Z,77485.38
2019-03-09T19:18:12.931Z,77482.34
2019-03-09T19:20:43.073Z,77489.42
2019-03-09T19:23:33.148Z,77488.41
2019-03-09T19:26:21.597Z,77488.41
2019-03-09T19:28:51.382Z,77494.48
2019-03-09T19:31:25.827Z,77499.55
2019-03-09T19:33:55.053Z,77504.61
2019-03-09T19:36:24.488Z,77507.64
2019-03-09T19:44:25.848Z,77527.89
2019-03-09T19:46:55.383Z,77539.03
2019-03-09T19:49:24.729Z,77532.95
2019-03-09T19:54:43.465Z,77530.93
2019-03-09T19:57:33.479Z,77534.98
2019-03-09T20:00:02.921Z,77542.06
2019-03-09T20:02:32.229Z,77539.03
2019-03-09T20:05:03.635Z,77534.98
2019-03-09T20:07:32.975Z,77531.94
2019-03-09T20:10:02.409Z,77526.88
2019-03-09T20:12:32.234Z,77531.94
2019-03-09T20:27:12.500Z,77522.83
2019-03-09T20:32:42.901Z,77532.95
2019-03-09T20:35:30.991Z,77525.87
2019-03-09T20:40:45.089Z,77529.92
2019-03-09T20:43:14.783Z,77532.95
2019-03-09T20:46:05.956Z,77541.05
2019-03-09T20:55:10.681Z,77543.08
2019-03-09T20:57:40.370Z,77539.03
2019-03-09T21:03:29.355Z,77544.09
2019-03-09T21:12:09.230Z,77530.93
2019-03-09T21:14:58.625Z,77524.86
2019-03-09T21:17:47.632Z,77515.74
2019-03-09T21:26:07.282Z,77494.48
2019-03-09T21:29:16.986Z,77493.47
2019-03-09T21:31:46.264Z,77489.42
2019-03-09T21:34:15.792Z,77487.39
2019-03-09T21:37:26.802Z,77487.39
2019-03-09T21:43:29.613Z,77488.41
2019-03-09T21:46:17.686Z,77490.44
2019-03-09T21:48:57.652Z,77491.45
2019-03-09T21:54:50.430Z,77499.55
2019-03-09T21:57:19.713Z,77502.58
2019-03-09T21:59:49.243Z,77496.51
2019-03-09T22:02:19.124Z,77498.53
2019-03-09T22:04:48.723Z,77491.45
2019-03-09T22:07:18.264Z,77501.57
2019-03-09T22:10:08.532Z,77507.64
2019-03-09T22:16:21.733Z,77504.61
2019-03-09T22:18:53.035Z,77491.45
2019-03-09T22:21:22.420Z,77494.48
2019-03-09T22:23:53.522Z,77499.55
2019-03-09T22:26:22.838Z,77495.50
2019-03-09T22:28:52.362Z,77492.45
2019-03-09T22:31:21.723Z,77486.38
2019-03-09T22:33:51.103Z,77489.42
2019-03-09T22:39:37.384Z,77497.52
2019-03-09T22:42:46.155Z,77503.59
2019-03-09T22:45:18.010Z,77505.62
2019-03-09T22:48:08.136Z,77507.64
2019-03-09T22:50:37.803Z,77511.70
2019-03-09T22:53:48.746Z,77512.70
2019-03-09T22:56:18.225Z,77515.74
2019-03-09T22:58:48.029Z,77521.81
2019-03-09T23:01:17.413Z,77519.80
2019-03-09T23:03:46.743Z,77519.80
2019-03-09T23:09:25.018Z,77519.80
2019-03-09T23:12:14.767Z,77522.83
2019-03-09T23:14:55.722Z,77526.88
2019-03-09T23:17:45.414Z,77519.80
2019-03-09T23:20:35.212Z,77517.77
2019-03-09T23:23:04.527Z,77508.66
2019-03-09T23:26:15.234Z,77506.63
2019-03-09T23:29:22.589Z,77512.70
2019-03-09T23:31:51.903Z,77506.63
2019-03-09T23:34:21.102Z,77515.74
2019-03-09T23:37:10.817Z,77505.62
2019-03-09T23:39:40.006Z,77512.70
2019-03-09T23:42:09.259Z,77511.70
2019-03-09T23:44:38.479Z,77511.70
2019-03-09T23:47:07.732Z,77510.69
2019-03-09T23:49:36.981Z,77497.52
2019-03-09T23:52:06.211Z,77498.53
2019-03-09T23:54:35.737Z,77502.58
2019-03-09T23:57:24.166Z,77495.50
2019-03-09T23:59:53.399Z,77494.48
